Mount Pleasant, MS (38649)

6:13 AM CST on February 01, 2015 (GMT -0600)
Bett | Change Station
CLOSE
Current Station
Personal Weather Station
Location: Coldwater, MS
Elevation: 367 ft
Nearby Weather Stations

Elev 367 ft 34.69 °N, 89.76 °W | Updated 53 seconds ago

Rain
Rain
46.8 °F
Feels Like 47 °F
N
2.0
Wind Variable Wind from SW
Gusts 6.0 mph

Today
High -- | Low -- °F
--% Chance of Precip.
Yesterday
High -- | Low -- °F
Precip. -- in
6:56 AM 5:27 PM
Waxing Gibbous, 94% visible
Pressure 29.93 in
Visibility 4.0 miles
Clouds Few 2000 ft
Scattered Clouds 3200 ft
Mostly Cloudy 4300 ft
Windchill 47 °F
Dew Point 45 °F
Humidity 93%
Rainfall 0.09 in
Snow Depth Not available.
UV 0 out of 12
Pollen 2.40 out of 12
Air Quality Not available.
Flu Activity Not available.
METAR KOLV 011135Z AUTO 16012G18KT 4SM FEW020 SCT032 BKN043 07/07 A2993 RMK A01 P002

More Conditions Fewer Conditions

Pressure 29.93 in
Visibility 4.0 miles
Clouds Few 2000 ft
Scattered Clouds 3200 ft
Mostly Cloudy 4300 ft
Windchill 47 °F
Dew Point 45 °F
Humidity 93%
Rainfall 0.09 in
Snow Depth Not available.
UV 0 out of 12
Pollen 2.40 out of 12
Air Quality Not available.
Flu Activity Not available.
METAR KOLV 011135Z AUTO 16012G18KT 4SM FEW020 SCT032 BKN043 07/07 A2993 RMK A01 P002

More Conditions Fewer Conditions

10-Day Weather Forecast

Almanac

Astronomy

Feb. 01, 2015 Rise Set
Actual Time
Civil Twilight
Nautical Twilight
Astronomical Twilight
Moon
Length of Visible Light
Length of Day
Tomorrow will be .
, % of the Moon is Illuminated

Today's Extremes

State Highs State Lows

Community

WunderPhotos

Upload Photos

1,792,349 photos uploaded!

WunderBlogs® & News

Nearby

Air Quality

  Air Quality AQ Index Pollutant
Not available.

Snow Depth

Station Depth Elevation

Earthquake Activity

City Distance Mag. Time & Date
Minimum magnitude displayed is 2.5.

Coastal Water Temperatures

Place Temperature

Nearby Weather Stations